Time;durP1;ratioP1;P1;durP2;ratioP2;P2;SDS_P1;SDS_P2;PMS_P1;PMS_P2;Temp;Humidity;BMP_temperature;BMP_pressure;BME280_temperature;BME280_humidity;BME280_pressure;Samples;Min_cycle;Max_cycle;Signal;HPM_P1;HPM_P2
2022/07/20 00:00:31;;;;;;;;;;;22.80;69.00;;;;;;5073161;28;20477;-67
2022/07/20 00:03:01;;;;;;;;;;;22.70;69.30;;;;;;5072956;28;19916;-67
2022/07/20 00:05:29;;;;;;;;;;;;;;;;;;5076252;28;20256;-67
2022/07/20 00:07:55;;;;;;;;;;;;;;;;;;5076411;28;20000;-67
2022/07/20 00:13:06;;;;;;;;;;;;;;;;;;5076194;28;19908;-66
2022/07/20 00:15:32;;;;;;;;;;;;;;;;;;5076310;28;20000;-66
2022/07/20 00:17:58;;;;;;;;;;;;;;;;;;5058285;28;19913;-66
2022/07/20 00:20:24;;;;;;;;;;;;;;;;;;5076510;28;19916;-66
2022/07/20 00:22:50;;;;;;;;;;;;;;;;;;5076134;28;20362;-67
2022/07/20 00:25:16;;;;;;;;;;;;;;;;;;5076089;28;19995;-67
2022/07/20 00:27:41;;;;;;;;;;;;;;;;;;5076297;28;19926;-67
2022/07/20 00:30:07;;;;;;;;;;;;;;;;;;5075998;28;20283;-67
2022/07/20 00:32:33;;;;;;;;;;;;;;;;;;5075979;28;19912;-67
2022/07/20 00:34:59;;;;;;;;;;;;;;;;;;5076229;28;19913;-67
2022/07/20 00:37:25;;;;;;;;;;;;;;;;;;5076215;28;19987;-67
2022/07/20 00:39:51;;;;;;;;;;;;;;;;;;5075885;28;20359;-67
2022/07/20 00:42:17;;;;;;;;;;;;;;;;;;5075858;28;19958;-67
2022/07/20 00:44:42;;;;;;;;;;;;;;;;;;5076028;28;19909;-67
2022/07/20 00:47:08;;;;;;;;;;;;;;;;;;5075942;28;19958;-67
2022/07/20 00:49:34;;;;;;;;;;;;;;;;;;5075971;28;19916;-66
2022/07/20 00:52:00;;;;;;;;;;;;;;;;;;5075654;28;19908;-67
2022/07/20 00:54:26;;;;;;;;;;;;;;;;;;5075886;28;19915;-67
2022/07/20 00:56:52;;;;;;;;;;;;;;;;;;5075406;28;20362;-66
2022/07/20 00:59:18;;;;;;;;;;;;;;;;;;5075818;28;19908;-66
2022/07/20 01:01:44;;;;;;;;;;;;;;;;;;5075748;28;19908;-67
2022/07/20 01:04:10;;;;;;;;;;;;;;;;;;5075751;28;19943;-66
2022/07/20 01:06:36;;;;;;;;;;;;;;;;;;5075266;28;20366;-66
2022/07/20 01:09:01;;;;;;;;;;;;;;;;;;5075565;28;19916;-67
2022/07/20 01:11:27;;;;;;;;;;;;;;;;;;5075269;28;19915;-66
2022/07/20 01:13:53;;;;;;;;;;;;;;;;;;5075158;28;19916;-66
2022/07/20 01:16:19;;;;;;;;;;;;;;;;;;5075154;28;19913;-66
2022/07/20 01:18:45;;;;;;;;;;;;;;;;;;5075415;28;19916;-66
2022/07/20 01:21:11;;;;;;;;;;;;;;;;;;5075373;28;20342;-66
2022/07/20 01:23:37;;;;;;;;;;;;;;;;;;5075082;28;19947;-66
2022/07/20 01:26:03;;;;;;;;;;;;;;;;;;5074875;28;19909;-66
2022/07/20 01:28:29;;;;;;;;;;;;;;;;;;5075015;28;19949;-66
2022/07/20 01:30:54;;;;;;;;;;;;;;;;;;5075175;28;19909;-66
2022/07/20 01:33:20;;;;;;;;;;;;;;;;;;5074853;28;20432;-66
2022/07/20 01:35:46;;;;;;;;;;;;;;;;;;5075103;28;19908;-67
2022/07/20 01:38:12;;;;;;;;;;;;;;;;;;5074976;28;19999;-66
2022/07/20 01:40:38;;;;;;;;;;;;;;;;;;5074687;28;20386;-67
2022/07/20 01:43:04;;;;;;;;;;;;;;;;;;5074610;28;20003;-67
2022/07/20 01:45:30;;;;;;;;;;;;;;;;;;5074587;28;19913;-66
2022/07/20 01:47:56;;;;;;;;;;;;;;;;;;5074721;28;19912;-66
2022/07/20 01:50:21;;;;;;;;;;;;;;;;;;5074768;28;20266;-66
2022/07/20 01:52:47;;;;;;;;;;;;;;;;;;5074423;28;19909;-66
2022/07/20 01:55:13;;;;;;;;;;;;;;;;;;5074649;28;19912;-67
2022/07/20 01:57:39;;;;;;;;;;;;;;;;;;5074172;28;20199;-66
2022/07/20 02:00:05;;;;;;;;;;;;;;;;;;5074307;28;20351;-66
2022/07/20 02:02:31;;;;;;;;;;;;;;;;;;5074537;28;19916;-66
2022/07/20 02:04:57;;;;;;;;;;;;;;;;;;5074184;28;19954;-66
2022/07/20 02:07:23;;;;;;;;;;;;;;;;;;5074378;28;19956;-66
2022/07/20 02:09:48;;;;;;;;;;;;;;;;;;5074425;28;19915;-66
2022/07/20 02:12:14;;;;;;;;;;;;;;;;;;5074648;28;20251;-67
2022/07/20 02:14:40;;;;;;;;;;;;;;;;;;5074325;28;19955;-67
2022/07/20 02:17:06;;;;;;;;;;;;;;;;;;5074255;28;20007;-66
2022/07/20 02:19:32;;;;;;;;;;;;;;;;;;5056041;28;19908;-66
2022/07/20 02:21:58;;;;;;;;;;;;;;;;;;5073880;28;19915;-66
2022/07/20 02:24:24;;;;;;;;;;;;;;;;;;5074166;28;20468;-66
2022/07/20 02:26:50;;;;;;;;;;;;;;;;;;5073421;28;20023;-66
2022/07/20 02:29:16;;;;;;;;;;;;;;;;;;5073873;28;19909;-67
2022/07/20 02:31:41;;;;;;;;;;;;;;;;;;5073821;28;19962;-67
2022/07/20 02:34:07;;;;;;;;;;;;;;;;;;5074043;28;19908;-66
2022/07/20 02:36:33;;;;;;;;;;;;;;;;;;5055758;28;19999;-66
2022/07/20 02:38:59;;;;;;;;;;;;;;;;;;5073972;28;19965;-67
2022/07/20 02:41:25;;;;;;;;;;;;;;;;;;5074001;28;20351;-67
2022/07/20 02:43:51;;;;;;;;;;;;;;;;;;5073657;28;19999;-66
2022/07/20 02:46:17;;;;;;;;;;;;;;;;;;5073867;28;19909;-66
2022/07/20 02:48:43;;;;;;;;;;;;;;;;;;5073893;28;20263;-66
2022/07/20 02:51:09;;;;;;;;;;;;;;;;;;5073852;28;20128;-66
2022/07/20 02:53:34;;;;;;;;;;;;;;;;;;5073866;28;19909;-67
2022/07/20 02:56:00;;;;;;;;;;;;;;;;;;5073352;28;19908;-66
2022/07/20 02:58:26;;;;;;;;;;;;;;;;;;5073554;28;20398;-67
2022/07/20 03:00:52;;;;;;;;;;;;;;;;;;5073520;28;19908;-66
2022/07/20 03:03:18;;;;;;;;;;;;;;;;;;5073768;28;19908;-66
2022/07/20 03:05:44;;;;;;;;;;;;;;;;;;5073702;28;19944;-66
2022/07/20 03:08:10;;;;;;;;;;;;;;;;;;5073344;28;19924;-66
2022/07/20 03:10:36;;;;;;;;;;;;;;;;;;5073392;28;19909;-66
2022/07/20 03:13:02;;;;;;;;;;;;;;;;;;5073371;28;19954;-67
2022/07/20 03:15:27;;;;;;;;;;;;;;;;;;5073612;28;19916;-67
2022/07/20 03:17:53;;;;;;;;;;;;;;;;;;5073328;28;20418;-66
2022/07/20 03:20:19;;;;;;;;;;;;;;;;;;5073582;28;19913;-67
2022/07/20 03:22:45;;;;;;;;;;;;;;;;;;5073539;28;19916;-66
2022/07/20 03:25:11;;;;;;;;;;;;;;;;;;5073248;28;19908;-66
2022/07/20 03:27:37;;;;;;;;;;;;;;;;;;5073119;28;19913;-66
2022/07/20 03:30:03;;;;;;;;;;;;;;;;;;5073486;28;19915;-66
2022/07/20 03:32:29;;;;;;;;;;;;;;;;;;5073487;28;19909;-66
2022/07/20 03:34:54;;;;;;;;;;;;;;;;;;5073397;28;19916;-66
2022/07/20 03:37:20;;;;;;;;;;;;;;;;;;5073409;28;19959;-66
2022/07/20 03:39:46;;;;;;;;;;;;;;;;;;5075329;28;20291;-66
2022/07/20 03:42:12;;;;;;;;;;;;;;;;;;5077231;28;19916;-67
2022/07/20 03:44:38;;;;;;;;;;;;;;;;;;5076881;28;19995;-67
2022/07/20 03:47:04;;;;;;;;;;;;;;;;;;5077050;28;20384;-66
2022/07/20 03:49:30;;;;;;;;;;;;;;;;;;5076698;28;19956;-67
2022/07/20 03:51:55;;;;;;;;;;;;;;;;;;5077036;28;19915;-66
2022/07/20 03:54:21;;;;;;;;;;;;;;;;;;5076667;28;20425;-66
2022/07/20 03:56:47;;;;;;;;;;;;;;;;;;5076447;28;19960;-66
2022/07/20 03:59:13;;;;;;;;;;;;;;;;;;5076864;28;19969;-66
2022/07/20 04:01:39;;;;;;;;;;;;;;;;;;5076563;28;20363;-66
2022/07/20 04:04:05;;;;;;;;;;;;;;;;;;5076572;28;19916;-67
2022/07/20 04:06:31;;;;;;;;;;;;;;;;;;5076442;28;20290;-66
2022/07/20 04:08:57;;;;;;;;;;;;;;;;;;5076502;28;19912;-66
2022/07/20 04:11:22;;;;;;;;;;;;;;;;;;5076402;28;19931;-67
2022/07/20 04:13:48;;;;;;;;;;;;;;;;;;5076365;28;19909;-67
2022/07/20 04:16:14;;;;;;;;;;;;;;;;;;5076301;28;19944;-66
2022/07/20 04:18:40;;;;;;;;;;;;;;;;;;5076251;28;20263;-67
2022/07/20 04:21:06;;;;;;;;;;;;;;;;;;5076215;28;19908;-66
2022/07/20 04:23:32;;;;;;;;;;;;;;;;;;5076175;28;19977;-66
2022/07/20 04:25:59;;;;;;;;;;;;;;;;;;5076168;28;19916;-66
2022/07/20 04:28:25;;;;;;;;;;;;;;;;;;5076324;28;19913;-66
2022/07/20 04:30:50;;;;;;;;;;;;;;;;;;5076052;28;19958;-66
2022/07/20 04:33:18;;;;;;;;;;;;;;;;;;5076586;28;19916;-66
2022/07/20 04:35:44;;;;;;;;;;;;;;;;;;5076019;28;19916;-66
2022/07/20 04:38:13;;;;;;;;;;;;;;;;;;5075942;28;20343;-66
2022/07/20 04:40:39;;;;;;;;;;;;;;;;;;5075928;28;19908;-66
2022/07/20 04:43:05;;;;;;;;;;;;;;;;;;5075869;28;19908;-66
2022/07/20 04:45:31;;;;;;;;;;;;;;;;;;5075796;28;19908;-67
2022/07/20 04:47:56;;;;;;;;;;;;;;;;;;5075659;28;19913;-67
2022/07/20 04:50:22;;;;;;;;;;;27.50;58.30;;;;;;5075364;28;19915;-67
2022/07/20 04:52:47;;;;;;;;;;;28.90;55.90;;;;;;5075919;28;19935;-67
2022/07/20 04:55:13;;;;;;;;;;;30.00;54.00;;;;;;5075651;28;19909;-67
2022/07/20 04:57:38;;;;;;;;;;;30.80;53.30;;;;;;5075461;28;19931;-67
2022/07/20 05:00:05;;;;;;;;;;;31.20;51.60;;;;;;5075605;28;19908;-67
2022/07/20 05:02:30;;;;;;;;;;;31.30;51.00;;;;;;5075777;28;19927;-67
2022/07/20 05:04:56;;;;;;;;;;;31.70;48.90;;;;;;5075461;28;20014;-67
2022/07/20 05:07:21;;;;;;;;;;;32.00;48.60;;;;;;5057512;28;19919;-67
2022/07/20 05:09:47;;;;;;;;;;;32.30;48.20;;;;;;5075595;28;19908;-67
2022/07/20 05:12:12;;;;;;;;;;;32.50;47.70;;;;;;5075036;28;19916;-67
2022/07/20 05:14:38;;;;;;;;;;;32.70;47.10;;;;;;5075249;28;19916;-68
2022/07/20 05:17:03;;;;;;;;;;;32.40;47.20;;;;;;5075210;28;19970;-68
2022/07/20 05:19:29;;;;;;;;;;;31.30;49.60;;;;;;5075007;28;19920;-68
2022/07/20 05:21:56;;;;;;;;;;;30.30;50.30;;;;;;5075396;28;19995;-68
2022/07/20 05:24:22;;;;;;;;;;;29.30;52.60;;;;;;5075308;28;19909;-68
2022/07/20 05:26:47;;;;;;;;;;;28.80;53.70;;;;;;5075228;28;19913;-68
2022/07/20 05:29:13;;;;;;;;;;;28.80;54.10;;;;;;5074936;28;19908;-68
2022/07/20 05:31:38;;;;;;;;;;;29.10;53.50;;;;;;5075151;28;19912;-68
2022/07/20 05:34:04;;;;;;;;;;;29.40;53.30;;;;;;5074781;28;20377;-68
2022/07/20 05:36:29;;;;;;;;;;;29.70;52.40;;;;;;5075045;28;19912;-68
2022/07/20 05:38:55;;;;;;;;;;;29.80;53.70;;;;;;5074747;28;19909;-68
2022/07/20 05:41:20;;;;;;;;;;;29.80;53.00;;;;;;5056870;28;19908;-68
2022/07/20 05:43:46;;;;;;;;;;;31.20;50.10;;;;;;5074595;28;19908;-68
2022/07/20 05:46:11;;;;;;;;;;;32.70;47.80;;;;;;5074829;28;19908;-69
2022/07/20 05:48:37;;;;;;;;;;;32.30;48.80;;;;;;5074519;28;20001;-68
2022/07/20 05:51:02;;;;;;;;;;;31.70;49.30;;;;;;5074793;28;20359;-69
2022/07/20 05:53:28;;;;;;;;;;;32.00;49.80;;;;;;5074687;28;20050;-69
2022/07/20 05:55:53;;;;;;;;;;;33.20;47.40;;;;;;5074465;28;20389;-69
2022/07/20 05:58:19;;;;;;;;;;;34.80;45.10;;;;;;5074658;28;19923;-69
2022/07/20 06:00:44;;;;;;;;;;;35.30;44.40;;;;;;5074244;28;20325;-69
2022/07/20 06:03:10;;;;;;;;;;;35.60;43.60;;;;;;5073622;28;19950;-69
2022/07/20 06:05:35;;;;;;;;;;;35.10;43.80;;;;;;5074452;28;19909;-69
2022/07/20 06:08:01;;;;;;;;;;;34.40;44.30;;;;;;5073441;28;20394;-69
2022/07/20 06:10:28;;;;;;;;;;;35.20;44.00;;;;;;5075393;28;19913;-69
2022/07/20 06:12:55;;;;;;;;;;;35.40;42.80;;;;;;5094354;28;20475;-69
2022/07/20 06:15:21;;;;;;;;;;;37.40;41.80;;;;;;5079942;28;19944;-69
2022/07/20 06:17:46;;;;;;;;;;;38.10;40.40;;;;;;5072305;28;19915;-69
2022/07/20 06:20:12;;;;;;;;;;;38.40;40.00;;;;;;5073595;28;19912;-69
2022/07/20 06:22:38;;;;;;;;;;;37.90;40.60;;;;;;5055878;28;19909;-69
2022/07/20 06:25:05;;;;;;;;;;;37.50;40.70;;;;;;5073811;28;20003;-69
2022/07/20 06:27:30;;;;;;;;;;;38.40;40.30;;;;;;5073990;28;19916;-69
2022/07/20 06:29:56;;;;;;;;;;;38.30;39.70;;;;;;5074071;28;20338;-69
2022/07/20 06:32:22;;;;;;;;;;;37.80;39.90;;;;;;5073944;28;19963;-70
2022/07/20 06:34:47;;;;;;;;;;;38.50;39.60;;;;;;5072040;28;19951;-69
2022/07/20 06:37:13;;;;;;;;;;;38.40;39.90;;;;;;5073946;28;19915;-69
2022/07/20 06:39:38;;;;;;;;;;;38.70;40.40;;;;;;5073788;28;19912;-70
2022/07/20 06:42:04;;;;;;;;;;;38.50;40.70;;;;;;5074004;28;19908;-70
2022/07/20 06:44:30;;;;;;;;;;;40.00;38.80;;;;;;5073705;28;19912;-69
2022/07/20 06:46:56;;;;;;;;;;;39.60;38.90;;;;;;5073018;28;20347;-69
2022/07/20 06:49:21;;;;;;;;;;;39.70;38.90;;;;;;5073690;28;19909;-69
2022/07/20 06:51:47;;;;;;;;;;;39.30;39.40;;;;;;5084405;28;19995;-70
2022/07/20 06:54:12;;;;;;;;;;;40.10;39.50;;;;;;5093835;28;19915;-70
2022/07/20 06:56:37;;;;;;;;;;;40.30;38.80;;;;;;5077525;28;19928;-70
2022/07/20 06:59:03;;;;;;;;;;;39.60;38.30;;;;;;5071863;28;20029;-69
2022/07/20 07:01:28;;;;;;;;;;;39.30;38.50;;;;;;5068010;28;19912;-69
2022/07/20 07:03:54;;;;;;;;;;;38.60;38.40;;;;;;5072269;28;19912;-69
2022/07/20 07:06:19;;;;;;;;;;;38.70;38.60;;;;;;5073363;28;20408;-69
2022/07/20 07:08:45;;;;;;;;;;;39.20;38.60;;;;;;5073309;28;19915;-69
2022/07/20 07:11:10;;;;;;;;;;;38.80;39.10;;;;;;5059080;28;19913;-70
2022/07/20 07:13:36;;;;;;;;;;;38.30;40.50;;;;;;5066219;28;19912;-69
2022/07/20 07:16:02;;;;;;;;;;;36.90;40.00;;;;;;5066691;28;19908;-69
2022/07/20 07:18:27;;;;;;;;;;;36.60;40.60;;;;;;5039594;28;20350;-69
2022/07/20 07:20:52;;;;;;;;;;;36.40;40.50;;;;;;5057552;28;19909;-69
2022/07/20 07:23:18;;;;;;;;;;;36.00;41.60;;;;;;5072662;28;20008;-69
2022/07/20 07:25:49;;;;;;;;;;;36.30;41.30;;;;;;5075943;28;20333;-69
2022/07/20 07:28:15;;;;;;;;;;;36.10;41.30;;;;;;5076804;28;19958;-69
2022/07/20 07:30:41;;;;;;;;;;;35.80;42.50;;;;;;5075367;28;19913;-68
2022/07/20 07:33:06;;;;;;;;;;;35.50;41.70;;;;;;5070968;28;19913;-68
2022/07/20 07:35:32;;;;;;;;;;;36.00;41.90;;;;;;5073762;28;19955;-68
2022/07/20 07:37:57;;;;;;;;;;;36.20;42.00;;;;;;5076986;28;19957;-69
2022/07/20 07:40:23;;;;;;;;;;;36.10;41.90;;;;;;5076977;28;20290;-68
2022/07/20 07:42:48;;;;;;;;;;;35.70;42.40;;;;;;5076880;28;19912;-68
2022/07/20 07:45:14;;;;;;;;;;;36.20;42.70;;;;;;5077072;28;19957;-68
2022/07/20 07:47:41;;;;;;;;;;;36.80;42.10;;;;;;5075498;28;19920;-68
2022/07/20 07:50:07;;;;;;;;;;;36.80;41.20;;;;;;5076945;28;19957;-68
2022/07/20 07:52:32;;;;;;;;;;;36.40;41.50;;;;;;5055756;28;20041;-68
2022/07/20 07:54:58;;;;;;;;;;;36.60;41.00;;;;;;5060624;28;20386;-68
2022/07/20 07:57:23;;;;;;;;;;;36.10;41.80;;;;;;5060561;28;19921;-68
2022/07/20 07:59:48;;;;;;;;;;;36.00;42.90;;;;;;5070901;28;19947;-68
2022/07/20 08:02:14;;;;;;;;;;;35.80;43.50;;;;;;5074861;28;19917;-68
2022/07/20 08:04:39;;;;;;;;;;;35.40;44.20;;;;;;5069808;28;19947;-68
2022/07/20 08:07:05;;;;;;;;;;;35.70;44.20;;;;;;5074946;28;19912;-68
2022/07/20 08:09:30;;;;;;;;;;;35.70;44.10;;;;;;5074829;28;19974;-68
2022/07/20 08:11:56;;;;;;;;;;;35.40;45.50;;;;;;5076039;28;20007;-67
2022/07/20 08:14:21;;;;;;;;;;;35.30;45.60;;;;;;5072208;28;19912;-67
2022/07/20 08:16:47;;;;;;;;;;;35.30;46.10;;;;;;5073666;28;19965;-67
2022/07/20 08:19:12;;;;;;;;;;;35.50;45.50;;;;;;5074872;28;19909;-67
2022/07/20 08:21:38;;;;;;;;;;;35.70;45.30;;;;;;5076129;28;20397;-67
2022/07/20 08:24:04;;;;;;;;;;;35.10;45.50;;;;;;5076160;28;19915;-67
2022/07/20 08:26:29;;;;;;;;;;;34.50;46.60;;;;;;5075612;28;19916;-67
2022/07/20 08:28:55;;;;;;;;;;;33.80;47.00;;;;;;5076391;28;20255;-67
2022/07/20 08:31:20;;;;;;;;;;;33.60;48.10;;;;;;5074810;28;19913;-66
2022/07/20 08:33:46;;;;;;;;;;;34.60;47.40;;;;;;5062874;28;19916;-67
2022/07/20 08:36:11;;;;;;;;;;;33.90;48.80;;;;;;5055945;28;19963;-67
2022/07/20 08:38:37;;;;;;;;;;;33.80;49.50;;;;;;5056115;28;19963;-66
2022/07/20 08:41:02;;;;;;;;;;;33.50;50.40;;;;;;5056009;28;20321;-66
2022/07/20 08:43:29;;;;;;;;;;;33.10;51.10;;;;;;5041572;28;20406;-67
2022/07/20 08:45:55;;;;;;;;;;;33.70;50.90;;;;;;5075516;28;19935;-68
2022/07/20 08:48:21;;;;;;;;;;;33.00;51.50;;;;;;5075441;28;19916;-69
2022/07/20 08:50:47;;;;;;;;;;;32.40;53.90;;;;;;5075494;28;20334;-67
2022/07/20 08:53:13;;;;;;;;;;;32.30;53.40;;;;;;5075409;28;20007;-67
2022/07/20 08:55:38;;;;;;;;;;;32.30;54.20;;;;;;5075776;28;19959;-68
2022/07/20 08:58:03;;;;;;;;;;;32.40;54.40;;;;;;5075301;28;19973;-68
2022/07/20 09:00:29;;;;;;;;;;;33.00;53.90;;;;;;5075473;28;19918;-68
2022/07/20 09:02:56;;;;;;;;;;;33.10;54.80;;;;;;5057603;28;20428;-68
2022/07/20 09:05:23;;;;;;;;;;;32.60;54.80;;;;;;5075641;28;20362;-68
2022/07/20 09:07:50;;;;;;;;;;;32.20;55.70;;;;;;5070575;28;19916;-67
2022/07/20 09:10:17;;;;;;;;;;;32.20;56.40;;;;;;5067724;28;19913;-69
2022/07/20 09:12:51;;;;;;;;;;;32.50;56.30;;;;;;5057392;28;19913;-68
2022/07/20 09:15:24;;;;;;;;;;;32.20;57.50;;;;;;5074398;28;19912;-68
2022/07/20 09:18:00;;;;;;;;;;;31.90;57.80;;;;;;5075053;28;20359;-68
2022/07/20 09:20:29;;;;;;;;;;;32.00;58.20;;;;;;5075111;28;20279;-68
2022/07/20 09:22:59;;;;;;;;;;;32.10;58.20;;;;;;5075388;28;19908;-68
2022/07/20 09:25:37;;;;;;;;;;;32.60;57.80;;;;;;5075069;28;19991;-68
2022/07/20 09:28:02;;;;;;;;;;;32.80;57.10;;;;;;5058389;28;19912;-68
2022/07/20 09:30:28;;;;;;;;;;;32.60;57.70;;;;;;5075114;28;19909;-68
2022/07/20 09:32:59;;;;;;;;;;;32.70;57.80;;;;;;5075080;28;20350;-67
2022/07/20 09:35:26;;;;;;;;;;;32.50;58.10;;;;;;5074898;28;20328;-68
2022/07/20 09:37:54;;;;;;;;;;;32.40;59.10;;;;;;5072777;28;20434;-68
2022/07/20 09:40:19;;;;;;;;;;;32.50;59.80;;;;;;5074607;28;19917;-68
2022/07/20 09:42:46;;;;;;;;;;;32.90;59.80;;;;;;5075005;28;19958;-68
2022/07/20 09:45:24;;;;;;;;;;;33.40;57.80;;;;;;5074874;28;19909;-68
2022/07/20 09:48:07;;;;;;;;;;;33.60;57.90;;;;;;5068860;28;20386;-68
2022/07/20 09:50:34;;;;;;;;;;;33.80;58.40;;;;;;5056831;28;19908;-69
2022/07/20 09:52:59;;;;;;;;;;;34.80;55.80;;;;;;5074779;28;20403;-68
2022/07/20 09:55:25;;;;;;;;;;;34.60;54.90;;;;;;5074416;28;19956;-68
2022/07/20 09:57:51;;;;;;;;;;;34.10;55.30;;;;;;5071524;28;19927;-67
2022/07/20 10:00:18;;;;;;;;;;;33.40;58.00;;;;;;5058294;28;19912;-68
2022/07/20 10:02:46;;;;;;;;;;;34.20;56.80;;;;;;5036812;28;19912;-68
2022/07/20 10:05:12;;;;;;;;;;;34.90;54.20;;;;;;5054122;28;20268;-67
2022/07/20 10:07:38;;;;;;;;;;;33.90;55.20;;;;;;5054447;28;19913;-67
2022/07/20 10:10:04;;;;;;;;;;;34.40;55.40;;;;;;5054464;28;19995;-68
2022/07/20 10:12:29;;;;;;;;;;;33.60;56.00;;;;;;5054223;28;19913;-67
2022/07/20 10:14:57;;;;;;;;;;;33.30;56.50;;;;;;5054224;28;19959;-67
2022/07/20 10:17:22;;;;;;;;;;;33.40;56.60;;;;;;5060094;28;19913;-68
2022/07/20 10:19:48;;;;;;;;;;;34.20;55.50;;;;;;5073971;28;19908;-68
2022/07/20 10:22:14;;;;;;;;;;;34.20;54.00;;;;;;5074087;28;19909;-68
2022/07/20 10:24:42;;;;;;;;;;;34.30;54.40;;;;;;5055945;28;19912;-68
2022/07/20 10:27:12;;;;;;;;;;;34.10;55.00;;;;;;5072855;28;19912;-68
2022/07/20 10:29:40;;;;;;;;;;;34.10;55.50;;;;;;5073990;28;20282;-69
2022/07/20 10:32:14;;;;;;;;;;;34.60;54.30;;;;;;5071899;28;19918;-69
2022/07/20 10:34:40;;;;;;;;;;;35.00;53.60;;;;;;5056214;28;19912;-69
2022/07/20 10:37:26;;;;;;;;;;;35.20;52.50;;;;;;5073988;28;19909;-68
2022/07/20 10:39:53;;;;;;;;;;;34.90;53.00;;;;;;5073732;28;20362;-69
2022/07/20 10:42:38;;;;;;;;;;;35.60;51.10;;;;;;5073665;28;20447;-66
2022/07/20 10:45:23;;;;;;;;;;;35.40;52.20;;;;;;5073516;28;20413;-67
2022/07/20 10:47:53;;;;;;;;;;;35.30;51.60;;;;;;5073425;28;19916;-67
2022/07/20 10:50:21;;;;;;;;;;;34.70;53.20;;;;;;5073721;28;19908;-67
2022/07/20 10:52:49;;;;;;;;;;;35.50;51.90;;;;;;5073700;28;19909;-67
2022/07/20 10:55:34;;;;;;;;;;;35.70;50.90;;;;;;5073702;28;19916;-68
2022/07/20 10:58:00;;;;;;;;;;;35.20;51.60;;;;;;5073239;28;20393;-67
2022/07/20 11:00:30;;;;;;;;;;;33.90;53.30;;;;;;5055059;28;22441;-67
2022/07/20 11:02:56;;;;;;;;;;;34.30;54.00;;;;;;5073336;28;20378;-67
2022/07/20 11:05:22;;;;;;;;;;;34.50;53.20;;;;;;5073619;28;19915;-68
2022/07/20 11:07:47;;;;;;;;;;;35.00;53.00;;;;;;5072843;28;20434;-68
2022/07/20 11:10:30;;;;;;;;;;;34.90;52.20;;;;;;5073276;28;19916;-67
2022/07/20 11:12:58;;;;;;;;;;;35.10;51.60;;;;;;5061544;28;19909;-68
2022/07/20 11:15:36;;;;;;;;;;;35.20;52.30;;;;;;5053220;28;19913;-68
2022/07/20 11:18:01;;;;;;;;;;;35.50;51.60;;;;;;5060140;28;19908;-68
2022/07/20 11:20:27;;;;;;;;;;;35.30;52.00;;;;;;5055195;28;19961;-68
2022/07/20 11:22:55;;;;;;;;;;;35.20;52.70;;;;;;5073382;28;20328;-68
2022/07/20 11:25:20;;;;;;;;;;;35.10;52.20;;;;;;5073122;28;19909;-68
2022/07/20 11:27:58;;;;;;;;;;;34.60;52.90;;;;;;5073044;28;20389;-68
2022/07/20 11:30:39;;;;;;;;;;;34.50;53.60;;;;;;5073144;28;19920;-69
2022/07/20 11:33:04;;;;;;;;;;;35.10;53.80;;;;;;5055168;28;19912;-68
2022/07/20 11:35:30;;;;;;;;;;;35.40;52.30;;;;;;5069150;28;19916;-68
2022/07/20 11:37:56;;;;;;;;;;;35.20;52.20;;;;;;5072825;28;19912;-68
2022/07/20 11:40:22;;;;;;;;;;;34.60;52.10;;;;;;5054600;28;19915;-68
2022/07/20 11:43:07;;;;;;;;;;;34.60;52.70;;;;;;5072331;28;19946;-68
2022/07/20 11:45:33;;;;;;;;;;;34.60;53.00;;;;;;5070885;28;19916;-68
2022/07/20 11:47:59;;;;;;;;;;;34.40;52.70;;;;;;5052913;28;20279;-68
2022/07/20 11:50:30;;;;;;;;;;;34.80;52.60;;;;;;5053202;28;19944;-68
2022/07/20 11:52:56;;;;;;;;;;;34.90;51.80;;;;;;5053151;28;19909;-67
2022/07/20 11:55:37;;;;;;;;;;;35.00;52.00;;;;;;5035205;28;19909;-67
2022/07/20 11:58:03;;;;;;;;;;;35.20;51.70;;;;;;5052842;28;20027;-67
2022/07/20 12:00:29;;;;;;;;;;;35.30;51.20;;;;;;5038341;28;20353;-67
2022/07/20 12:02:55;;;;;;;;;;;35.30;51.10;;;;;;5058881;28;19955;-67
2022/07/20 12:05:21;;;;;;;;;;;34.40;52.70;;;;;;5076495;28;20053;-68
2022/07/20 12:08:18;;;;;;;;;;;34.80;53.00;;;;;;5076558;28;19972;-68
2022/07/20 12:10:32;;;;;;;;;;;34.80;52.00;;;;;;5076165;28;19915;-67
2022/07/20 12:13:00;;;;;;;;;;;35.00;51.70;;;;;;5065056;28;19908;-68
2022/07/20 12:15:25;;;;;;;;;;;34.90;51.30;;;;;;5056588;28;20015;-68
2022/07/20 12:17:51;;;;;;;;;;;34.90;52.10;;;;;;5056108;28;19955;-68
2022/07/20 12:20:17;;;;;;;;;;;34.90;52.00;;;;;;5056399;28;20292;-68
2022/07/20 12:22:58;;;;;;;;;;;35.00;51.60;;;;;;5054885;28;19948;-68
2022/07/20 12:25:40;;;;;;;;;;;34.80;51.20;;;;;;5063314;28;19913;-68
2022/07/20 12:28:06;;;;;;;;;;;34.70;51.40;;;;;;5075355;28;20027;-68
2022/07/20 12:30:34;;;;;;;;;;;35.10;52.00;;;;;;5076206;28;19936;-68
2022/07/20 12:33:05;;;;;;;;;;;35.20;51.30;;;;;;5076298;28;19908;-68
2022/07/20 12:35:30;;;;;;;;;;;35.10;51.70;;;;;;5075436;28;20333;-68
2022/07/20 12:37:56;;;;;;;;;;;34.80;52.20;;;;;;5050954;28;19912;-68
2022/07/20 12:40:41;;;;;;;;;;;34.80;51.60;;;;;;5055788;28;20319;-68
2022/07/20 12:43:27;;;;;;;;;;;35.10;52.00;;;;;;5055684;28;20390;-68
2022/07/20 12:45:54;;;;;;;;;;;35.10;51.90;;;;;;5055737;28;20268;-68
2022/07/20 12:48:19;;;;;;;;;;;34.90;52.00;;;;;;5055632;28;19916;-68
2022/07/20 12:50:45;;;;;;;;;;;34.80;52.60;;;;;;5070362;28;19932;-68
2022/07/20 12:53:10;;;;;;;;;;;34.60;51.90;;;;;;5075904;28;19935;-68
2022/07/20 12:55:36;;;;;;;;;;;34.40;51.90;;;;;;5075816;28;20290;-68
2022/07/20 12:58:02;;;;;;;;;;;34.70;52.50;;;;;;5075411;28;19930;-68
2022/07/20 13:00:27;;;;;;;;;;;34.80;52.10;;;;;;5075496;28;19915;-68
2022/07/20 13:02:53;;;;;;;;;;;34.60;51.60;;;;;;5075427;28;19912;-68
2022/07/20 13:05:18;;;;;;;;;;;34.10;52.30;;;;;;5056437;28;19912;-68
2022/07/20 13:07:46;;;;;;;;;;;34.20;52.70;;;;;;5075509;28;20289;-68
2022/07/20 13:10:12;;;;;;;;;;;34.30;52.30;;;;;;5056934;28;19913;-68
2022/07/20 13:12:37;;;;;;;;;;;34.10;53.30;;;;;;5066074;28;19939;-68
2022/07/20 13:15:03;;;;;;;;;;;33.90;53.90;;;;;;5072605;28;19913;-68
2022/07/20 13:17:29;;;;;;;;;;;34.10;53.80;;;;;;5071354;28;19999;-68
2022/07/20 13:19:54;;;;;;;;;;;34.30;54.30;;;;;;5068097;28;20334;-70
2022/07/20 13:22:19;;;;;;;;;;;34.50;54.70;;;;;;5072456;28;20007;-68
2022/07/20 13:24:45;;;;;;;;;;;34.40;53.90;;;;;;5075216;28;19909;-67
2022/07/20 13:27:10;;;;;;;;;;;34.30;53.90;;;;;;5070647;28;20450;-68
2022/07/20 13:29:36;;;;;;;;;;;34.00;54.70;;;;;;5072507;28;19920;-68
2022/07/20 13:32:01;;;;;;;;;;;34.10;56.40;;;;;;5075171;28;19991;-68
2022/07/20 13:34:27;;;;;;;;;;;34.20;54.10;;;;;;5072084;28;19917;-68
2022/07/20 13:36:52;;;;;;;;;;;34.00;53.40;;;;;;5071847;28;19916;-68
2022/07/20 13:39:18;;;;;;;;;;;33.90;54.20;;;;;;5069160;28;19913;-68
2022/07/20 13:41:43;;;;;;;;;;;34.00;54.60;;;;;;5074637;28;19912;-67
2022/07/20 13:44:09;;;;;;;;;;;34.00;54.30;;;;;;5068128;28;19912;-68
2022/07/20 13:46:34;;;;;;;;;;;34.20;54.90;;;;;;5072702;28;20363;-68
2022/07/20 13:49:02;;;;;;;;;;;33.90;53.80;;;;;;5073435;28;19913;-68
2022/07/20 13:51:27;;;;;;;;;;;34.00;54.60;;;;;;5056604;28;19916;-67
2022/07/20 13:53:53;;;;;;;;;;;33.50;54.80;;;;;;5073711;28;19916;-68
2022/07/20 13:56:18;;;;;;;;;;;33.50;55.10;;;;;;5073676;28;20347;-67
2022/07/20 13:58:44;;;;;;;;;;;33.60;54.70;;;;;;5061378;28;20444;-67
2022/07/20 14:01:09;;;;;;;;;;;33.90;55.20;;;;;;5046188;28;19915;-68
2022/07/20 14:03:35;;;;;;;;;;;33.80;55.10;;;;;;5072199;28;20275;-67
2022/07/20 14:06:01;;;;;;;;;;;33.40;55.10;;;;;;5069415;28;19917;-68
2022/07/20 14:08:26;;;;;;;;;;;33.30;55.10;;;;;;5054142;28;19913;-67
2022/07/20 14:10:52;;;;;;;;;;;33.30;55.50;;;;;;5059452;28;19916;-68
2022/07/20 14:13:18;;;;;;;;;;;33.20;55.40;;;;;;5073821;28;20011;-67
2022/07/20 14:15:43;;;;;;;;;;;33.30;55.70;;;;;;5068911;28;20363;-68
2022/07/20 14:18:09;;;;;;;;;;;33.10;55.40;;;;;;5072896;28;19920;-67
2022/07/20 14:20:35;;;;;;;;;;;33.10;56.60;;;;;;5074245;28;20278;-67
2022/07/20 14:23:00;;;;;;;;;;;33.20;56.30;;;;;;5065689;28;20004;-67
2022/07/20 14:25:26;;;;;;;;;;;33.50;55.80;;;;;;5053257;28;19913;-68
2022/07/20 14:27:51;;;;;;;;;;;33.40;55.40;;;;;;5053060;28;19940;-68
2022/07/20 14:30:17;;;;;;;;;;;33.50;55.50;;;;;;5035174;28;19935;-67
2022/07/20 14:32:42;;;;;;;;;;;33.50;55.10;;;;;;5052791;28;19913;-68
2022/07/20 14:35:08;;;;;;;;;;;33.40;55.50;;;;;;5053048;28;19991;-68
2022/07/20 14:37:34;;;;;;;;;;;33.60;54.90;;;;;;5053062;28;19920;-67
2022/07/20 14:40:00;;;;;;;;;;;33.50;55.40;;;;;;5053558;28;19909;-67
2022/07/20 14:42:25;;;;;;;;;;;33.30;55.40;;;;;;5053685;28;19909;-68
2022/07/20 14:44:51;;;;;;;;;;;33.10;55.50;;;;;;5053961;28;19959;-67
2022/07/20 14:47:17;;;;;;;;;;;32.90;55.50;;;;;;5053819;28;19913;-67
2022/07/20 14:49:42;;;;;;;;;;;33.00;55.30;;;;;;5053573;28;19909;-67
2022/07/20 14:52:08;;;;;;;;;;;33.10;55.60;;;;;;5053619;28;19916;-67
2022/07/20 14:54:33;;;;;;;;;;;33.40;55.80;;;;;;5053846;28;19912;-67
2022/07/20 14:56:59;;;;;;;;;;;33.30;55.40;;;;;;5053416;28;19920;-67